sensor_id;sensor_type;location;lat;lon;timestamp;temperature;humidity
43043;DHT22;28667;50.758;6.096;2022-09-27T00:00:58;9.20;99.90
43043;DHT22;28667;50.758;6.096;2022-09-27T00:03:24;9.20;99.90
43043;DHT22;28667;50.758;6.096;2022-09-27T00:08:34;9.20;99.90
43043;DHT22;28667;50.758;6.096;2022-09-27T00:11:06;9.20;99.90
43043;DHT22;28667;50.758;6.096;2022-09-27T00:13:32;9.20;99.90
43043;DHT22;28667;50.758;6.096;2022-09-27T00:16:00;9.20;99.90
43043;DHT22;28667;50.758;6.096;2022-09-27T00:18:26;9.20;99.90
43043;DHT22;28667;50.758;6.096;2022-09-27T00:20:53;9.30;99.90
43043;DHT22;28667;50.758;6.096;2022-09-27T00:23:19;9.30;99.90
43043;DHT22;28667;50.758;6.096;2022-09-27T00:25:58;9.30;99.90
43043;DHT22;28667;50.758;6.096;2022-09-27T00:28:25;9.20;99.90
43043;DHT22;28667;50.758;6.096;2022-09-27T00:30:52;9.20;99.90
43043;DHT22;28667;50.758;6.096;2022-09-27T00:33:19;9.30;99.90
43043;DHT22;28667;50.758;6.096;2022-09-27T00:35:46;9.30;99.90
43043;DHT22;28667;50.758;6.096;2022-09-27T00:38:12;9.30;99.90
43043;DHT22;28667;50.758;6.096;2022-09-27T00:40:39;9.30;99.90
43043;DHT22;28667;50.758;6.096;2022-09-27T00:43:24;9.30;99.90
43043;DHT22;28667;50.758;6.096;2022-09-27T00:46:00;9.30;99.90
43043;DHT22;28667;50.758;6.096;2022-09-27T00:48:30;9.30;99.90
43043;DHT22;28667;50.758;6.096;2022-09-27T00:51:01;9.30;99.90
43043;DHT22;28667;50.758;6.096;2022-09-27T00:53:41;9.30;99.90
43043;DHT22;28667;50.758;6.096;2022-09-27T00:56:18;9.20;99.90
43043;DHT22;28667;50.758;6.096;2022-09-27T00:58:56;9.30;99.90
43043;DHT22;28667;50.758;6.096;2022-09-27T01:01:23;9.30;99.90
43043;DHT22;28667;50.758;6.096;2022-09-27T01:03:58;9.30;99.90
43043;DHT22;28667;50.758;6.096;2022-09-27T01:06:25;9.30;99.90
43043;DHT22;28667;50.758;6.096;2022-09-27T01:08:52;9.30;99.90
43043;DHT22;28667;50.758;6.096;2022-09-27T01:11:37;9.30;99.90
43043;DHT22;28667;50.758;6.096;2022-09-27T01:29:10;9.30;99.90
43043;DHT22;28667;50.758;6.096;2022-09-27T01:32:09;9.30;99.90
43043;DHT22;28667;50.758;6.096;2022-09-27T01:37:26;9.20;99.90
43043;DHT22;28667;50.758;6.096;2022-09-27T01:40:23;9.20;99.90
43043;DHT22;28667;50.758;6.096;2022-09-27T01:43:28;9.20;99.90
43043;DHT22;28667;50.758;6.096;2022-09-27T01:48:53;9.20;99.90
43043;DHT22;28667;50.758;6.096;2022-09-27T01:51:39;9.30;99.90
43043;DHT22;28667;50.758;6.096;2022-09-27T01:54:09;9.20;99.90
43043;DHT22;28667;50.758;6.096;2022-09-27T01:56:58;9.20;99.90
43043;DHT22;28667;50.758;6.096;2022-09-27T01:59:31;9.10;99.90
43043;DHT22;28667;50.758;6.096;2022-09-27T02:02:11;9.10;99.90
43043;DHT22;28667;50.758;6.096;2022-09-27T02:05:09;9.10;99.90
43043;DHT22;28667;50.758;6.096;2022-09-27T02:07:52;9.10;99.90
43043;DHT22;28667;50.758;6.096;2022-09-27T02:10:25;9.10;99.90
43043;DHT22;28667;50.758;6.096;2022-09-27T02:13:04;9.00;99.90
43043;DHT22;28667;50.758;6.096;2022-09-27T02:16:15;9.00;99.90
43043;DHT22;28667;50.758;6.096;2022-09-27T02:18:59;9.00;99.90
43043;DHT22;28667;50.758;6.096;2022-09-27T02:21:30;8.90;99.90
43043;DHT22;28667;50.758;6.096;2022-09-27T02:24:06;8.90;99.90
43043;DHT22;28667;50.758;6.096;2022-09-27T02:26:40;8.90;99.90
43043;DHT22;28667;50.758;6.096;2022-09-27T02:29:18;8.90;99.90
43043;DHT22;28667;50.758;6.096;2022-09-27T02:31:50;8.80;99.90
43043;DHT22;28667;50.758;6.096;2022-09-27T02:34:20;8.80;99.90
43043;DHT22;28667;50.758;6.096;2022-09-27T02:36:47;8.80;99.90
43043;DHT22;28667;50.758;6.096;2022-09-27T02:39:15;8.80;99.90
43043;DHT22;28667;50.758;6.096;2022-09-27T02:41:42;8.80;99.90
43043;DHT22;28667;50.758;6.096;2022-09-27T02:44:11;8.80;99.90
43043;DHT22;28667;50.758;6.096;2022-09-27T02:47:08;8.70;99.90
43043;DHT22;28667;50.758;6.096;2022-09-27T02:53:06;8.70;99.90
43043;DHT22;28667;50.758;6.096;2022-09-27T02:56:19;8.70;99.90
43043;DHT22;28667;50.758;6.096;2022-09-27T03:04:46;8.70;99.90
43043;DHT22;28667;50.758;6.096;2022-09-27T03:07:15;8.70;99.90
43043;DHT22;28667;50.758;6.096;2022-09-27T03:09:45;8.60;99.90
43043;DHT22;28667;50.758;6.096;2022-09-27T03:12:13;8.60;99.90
43043;DHT22;28667;50.758;6.096;2022-09-27T03:14:45;8.60;99.90
43043;DHT22;28667;50.758;6.096;2022-09-27T03:17:30;8.60;99.90
43043;DHT22;28667;50.758;6.096;2022-09-27T03:20:15;8.60;99.90
43043;DHT22;28667;50.758;6.096;2022-09-27T03:22:50;8.50;99.90
43043;DHT22;28667;50.758;6.096;2022-09-27T03:25:16;8.50;99.90
43043;DHT22;28667;50.758;6.096;2022-09-27T03:27:43;8.50;99.90
43043;DHT22;28667;50.758;6.096;2022-09-27T03:30:11;8.50;99.90
43043;DHT22;28667;50.758;6.096;2022-09-27T03:32:41;8.50;99.90
43043;DHT22;28667;50.758;6.096;2022-09-27T03:35:26;8.40;99.90
43043;DHT22;28667;50.758;6.096;2022-09-27T03:37:52;8.40;99.90
43043;DHT22;28667;50.758;6.096;2022-09-27T03:40:18;8.40;99.90
43043;DHT22;28667;50.758;6.096;2022-09-27T03:42:44;8.50;99.90
43043;DHT22;28667;50.758;6.096;2022-09-27T03:45:11;8.50;99.90
43043;DHT22;28667;50.758;6.096;2022-09-27T03:47:41;8.50;99.90
43043;DHT22;28667;50.758;6.096;2022-09-27T03:50:09;8.50;99.90
43043;DHT22;28667;50.758;6.096;2022-09-27T03:52:36;8.50;99.90
43043;DHT22;28667;50.758;6.096;2022-09-27T03:55:02;8.50;99.90
43043;DHT22;28667;50.758;6.096;2022-09-27T03:57:30;8.50;99.90
43043;DHT22;28667;50.758;6.096;2022-09-27T03:59:58;8.50;99.90
43043;DHT22;28667;50.758;6.096;2022-09-27T04:02:39;8.40;99.90
43043;DHT22;28667;50.758;6.096;2022-09-27T04:05:29;8.50;99.90
43043;DHT22;28667;50.758;6.096;2022-09-27T04:08:03;8.50;99.90
43043;DHT22;28667;50.758;6.096;2022-09-27T04:10:32;8.40;99.90
43043;DHT22;28667;50.758;6.096;2022-09-27T04:12:58;8.50;99.90
43043;DHT22;28667;50.758;6.096;2022-09-27T04:15:29;8.50;99.90
43043;DHT22;28667;50.758;6.096;2022-09-27T04:18:13;8.40;99.90
43043;DHT22;28667;50.758;6.096;2022-09-27T04:21:15;8.50;99.90
43043;DHT22;28667;50.758;6.096;2022-09-27T04:23:48;8.40;99.90
43043;DHT22;28667;50.758;6.096;2022-09-27T04:26:19;8.40;99.90
43043;DHT22;28667;50.758;6.096;2022-09-27T04:29:06;8.30;99.90
43043;DHT22;28667;50.758;6.096;2022-09-27T04:31:37;8.30;99.90
43043;DHT22;28667;50.758;6.096;2022-09-27T04:34:15;8.30;99.90
43043;DHT22;28667;50.758;6.096;2022-09-27T04:36:42;8.30;99.90
43043;DHT22;28667;50.758;6.096;2022-09-27T04:39:18;8.20;99.90
43043;DHT22;28667;50.758;6.096;2022-09-27T04:41:44;8.20;99.90
43043;DHT22;28667;50.758;6.096;2022-09-27T04:44:11;8.20;99.90
43043;DHT22;28667;50.758;6.096;2022-09-27T04:46:40;8.20;99.90
43043;DHT22;28667;50.758;6.096;2022-09-27T04:49:06;8.10;99.90
43043;DHT22;28667;50.758;6.096;2022-09-27T04:51:34;8.10;99.90
43043;DHT22;28667;50.758;6.096;2022-09-27T04:54:00;8.10;99.90
43043;DHT22;28667;50.758;6.096;2022-09-27T04:56:33;8.10;99.90
43043;DHT22;28667;50.758;6.096;2022-09-27T04:59:02;8.00;99.90
43043;DHT22;28667;50.758;6.096;2022-09-27T05:01:29;8.10;99.90
43043;DHT22;28667;50.758;6.096;2022-09-27T05:03:57;8.00;99.90
43043;DHT22;28667;50.758;6.096;2022-09-27T05:06:25;8.00;99.90
43043;DHT22;28667;50.758;6.096;2022-09-27T05:08:54;8.00;99.90
43043;DHT22;28667;50.758;6.096;2022-09-27T05:11:30;8.10;99.90
43043;DHT22;28667;50.758;6.096;2022-09-27T05:14:14;8.10;99.90
43043;DHT22;28667;50.758;6.096;2022-09-27T05:16:50;8.10;99.90
43043;DHT22;28667;50.758;6.096;2022-09-27T05:19:29;8.00;99.90
43043;DHT22;28667;50.758;6.096;2022-09-27T05:22:18;8.10;99.90
43043;DHT22;28667;50.758;6.096;2022-09-27T05:24:45;8.10;99.90
43043;DHT22;28667;50.758;6.096;2022-09-27T05:27:13;8.10;99.90
43043;DHT22;28667;50.758;6.096;2022-09-27T05:29:42;8.00;99.90
43043;DHT22;28667;50.758;6.096;2022-09-27T05:32:13;8.10;99.90
43043;DHT22;28667;50.758;6.096;2022-09-27T05:34:40;8.10;99.90
43043;DHT22;28667;50.758;6.096;2022-09-27T05:37:07;8.00;99.90
43043;DHT22;28667;50.758;6.096;2022-09-27T05:39:37;8.10;99.90
43043;DHT22;28667;50.758;6.096;2022-09-27T05:42:03;8.00;99.90
43043;DHT22;28667;50.758;6.096;2022-09-27T05:44:32;8.00;99.90
43043;DHT22;28667;50.758;6.096;2022-09-27T05:47:00;8.00;99.90
43043;DHT22;28667;50.758;6.096;2022-09-27T05:49:29;8.10;99.90
43043;DHT22;28667;50.758;6.096;2022-09-27T05:51:55;8.10;99.90
43043;DHT22;28667;50.758;6.096;2022-09-27T05:54:23;8.10;99.90
43043;DHT22;28667;50.758;6.096;2022-09-27T05:56:52;8.10;99.90
43043;DHT22;28667;50.758;6.096;2022-09-27T05:59:33;8.10;99.90
43043;DHT22;28667;50.758;6.096;2022-09-27T06:02:28;8.10;99.90
43043;DHT22;28667;50.758;6.096;2022-09-27T06:04:54;8.20;99.90
43043;DHT22;28667;50.758;6.096;2022-09-27T06:07:40;8.10;99.90
43043;DHT22;28667;50.758;6.096;2022-09-27T06:10:11;8.20;99.90
43043;DHT22;28667;50.758;6.096;2022-09-27T06:12:37;8.20;99.90
43043;DHT22;28667;50.758;6.096;2022-09-27T06:15:11;8.20;99.90
43043;DHT22;28667;50.758;6.096;2022-09-27T06:17:41;8.10;99.90
43043;DHT22;28667;50.758;6.096;2022-09-27T06:20:16;8.10;99.90
43043;DHT22;28667;50.758;6.096;2022-09-27T06:22:43;8.10;99.90
43043;DHT22;28667;50.758;6.096;2022-09-27T06:25:11;8.20;99.90
43043;DHT22;28667;50.758;6.096;2022-09-27T06:27:52;8.20;99.90
43043;DHT22;28667;50.758;6.096;2022-09-27T06:30:25;8.20;99.90
43043;DHT22;28667;50.758;6.096;2022-09-27T06:32:57;8.20;99.90
43043;DHT22;28667;50.758;6.096;2022-09-27T06:35:38;8.30;99.90
43043;DHT22;28667;50.758;6.096;2022-09-27T06:38:07;8.30;99.90
43043;DHT22;28667;50.758;6.096;2022-09-27T06:40:36;8.30;99.90
43043;DHT22;28667;50.758;6.096;2022-09-27T06:43:25;8.40;99.90
43043;DHT22;28667;50.758;6.096;2022-09-27T06:46:15;8.40;99.90
43043;DHT22;28667;50.758;6.096;2022-09-27T06:49:03;8.40;99.90
43043;DHT22;28667;50.758;6.096;2022-09-27T06:51:29;8.50;99.90
43043;DHT22;28667;50.758;6.096;2022-09-27T06:53:56;8.50;99.90
43043;DHT22;28667;50.758;6.096;2022-09-27T06:56:22;8.50;99.90
43043;DHT22;28667;50.758;6.096;2022-09-27T06:58:51;8.60;99.90
43043;DHT22;28667;50.758;6.096;2022-09-27T07:01:43;8.60;99.90
43043;DHT22;28667;50.758;6.096;2022-09-27T07:04:27;8.70;99.90
43043;DHT22;28667;50.758;6.096;2022-09-27T07:07:08;8.70;99.90
43043;DHT22;28667;50.758;6.096;2022-09-27T07:09:42;8.80;99.90
43043;DHT22;28667;50.758;6.096;2022-09-27T07:12:10;8.80;99.90
43043;DHT22;28667;50.758;6.096;2022-09-27T07:14:38;8.90;99.90
43043;DHT22;28667;50.758;6.096;2022-09-27T07:17:05;8.90;99.90
43043;DHT22;28667;50.758;6.096;2022-09-27T07:19:38;8.90;99.90
43043;DHT22;28667;50.758;6.096;2022-09-27T07:22:06;8.90;99.90
43043;DHT22;28667;50.758;6.096;2022-09-27T07:24:32;9.00;99.90
43043;DHT22;28667;50.758;6.096;2022-09-27T07:26:59;9.00;99.90
43043;DHT22;28667;50.758;6.096;2022-09-27T07:29:27;9.10;99.90
43043;DHT22;28667;50.758;6.096;2022-09-27T07:31:53;9.20;99.90
43043;DHT22;28667;50.758;6.096;2022-09-27T07:34:19;9.20;99.90
43043;DHT22;28667;50.758;6.096;2022-09-27T07:36:45;9.20;99.90
43043;DHT22;28667;50.758;6.096;2022-09-27T07:39:12;9.30;99.90
43043;DHT22;28667;50.758;6.096;2022-09-27T07:41:42;9.30;99.90
43043;DHT22;28667;50.758;6.096;2022-09-27T07:44:10;9.40;99.90
43043;DHT22;28667;50.758;6.096;2022-09-27T07:46:47;9.40;99.90
43043;DHT22;28667;50.758;6.096;2022-09-27T07:49:18;9.40;99.90
43043;DHT22;28667;50.758;6.096;2022-09-27T07:52:01;9.50;99.90
43043;DHT22;28667;50.758;6.096;2022-09-27T07:54:51;9.60;99.90
43043;DHT22;28667;50.758;6.096;2022-09-27T07:57:28;9.70;99.90
43043;DHT22;28667;50.758;6.096;2022-09-27T07:59:57;9.70;99.90
43043;DHT22;28667;50.758;6.096;2022-09-27T08:02:23;9.80;99.90
43043;DHT22;28667;50.758;6.096;2022-09-27T08:04:50;9.80;99.90
43043;DHT22;28667;50.758;6.096;2022-09-27T08:07:18;9.80;99.90
43043;DHT22;28667;50.758;6.096;2022-09-27T08:09:48;9.70;99.90
43043;DHT22;28667;50.758;6.096;2022-09-27T08:12:16;9.70;99.90
43043;DHT22;28667;50.758;6.096;2022-09-27T08:14:42;9.60;99.90
43043;DHT22;28667;50.758;6.096;2022-09-27T08:17:10;9.60;99.90
43043;DHT22;28667;50.758;6.096;2022-09-27T08:19:55;9.60;99.90
43043;DHT22;28667;50.758;6.096;2022-09-27T08:22:40;9.60;99.90
43043;DHT22;28667;50.758;6.096;2022-09-27T08:25:21;9.50;99.90
43043;DHT22;28667;50.758;6.096;2022-09-27T08:28:11;9.50;99.90
43043;DHT22;28667;50.758;6.096;2022-09-27T08:30:47;9.50;99.90
43043;DHT22;28667;50.758;6.096;2022-09-27T08:33:13;9.60;99.90
43043;DHT22;28667;50.758;6.096;2022-09-27T08:35:40;9.70;99.90
43043;DHT22;28667;50.758;6.096;2022-09-27T08:38:06;9.70;99.90
43043;DHT22;28667;50.758;6.096;2022-09-27T08:40:56;9.80;99.90
43043;DHT22;28667;50.758;6.096;2022-09-27T08:49:12;10.10;99.90
43043;DHT22;28667;50.758;6.096;2022-09-27T08:51:39;10.10;99.90
43043;DHT22;28667;50.758;6.096;2022-09-27T08:54:16;10.20;99.90
43043;DHT22;28667;50.758;6.096;2022-09-27T08:56:46;10.20;99.90
43043;DHT22;28667;50.758;6.096;2022-09-27T08:59:16;10.30;99.90
43043;DHT22;28667;50.758;6.096;2022-09-27T09:01:48;10.30;99.90
43043;DHT22;28667;50.758;6.096;2022-09-27T09:04:32;10.40;99.90
43043;DHT22;28667;50.758;6.096;2022-09-27T09:07:13;10.50;99.90
43043;DHT22;28667;50.758;6.096;2022-09-27T09:10:02;10.50;99.90
43043;DHT22;28667;50.758;6.096;2022-09-27T09:12:50;10.60;99.90
43043;DHT22;28667;50.758;6.096;2022-09-27T09:18:54;10.40;99.90
43043;DHT22;28667;50.758;6.096;2022-09-27T09:22:14;10.40;99.90
43043;DHT22;28667;50.758;6.096;2022-09-27T09:27:37;10.40;99.90
43043;DHT22;28667;50.758;6.096;2022-09-27T09:38:15;10.50;99.90
43043;DHT22;28667;50.758;6.096;2022-09-27T09:40:49;10.40;99.90
43043;DHT22;28667;50.758;6.096;2022-09-27T09:46:00;10.20;99.90
43043;DHT22;28667;50.758;6.096;2022-09-27T09:48:38;10.10;99.90
43043;DHT22;28667;50.758;6.096;2022-09-27T09:51:14;10.10;99.90
43043;DHT22;28667;50.758;6.096;2022-09-27T09:54:05;10.00;99.90
43043;DHT22;28667;50.758;6.096;2022-09-27T09:56:40;10.00;99.90
43043;DHT22;28667;50.758;6.096;2022-09-27T09:59:29;10.00;99.90
43043;DHT22;28667;50.758;6.096;2022-09-27T10:02:16;10.10;99.90
43043;DHT22;28667;50.758;6.096;2022-09-27T10:04:44;10.10;99.90
43043;DHT22;28667;50.758;6.096;2022-09-27T10:07:11;10.20;99.90
43043;DHT22;28667;50.758;6.096;2022-09-27T10:09:38;10.30;99.90
43043;DHT22;28667;50.758;6.096;2022-09-27T10:12:31;10.40;99.90
43043;DHT22;28667;50.758;6.096;2022-09-27T10:15:02;10.60;99.90
43043;DHT22;28667;50.758;6.096;2022-09-27T10:17:39;10.80;99.90
43043;DHT22;28667;50.758;6.096;2022-09-27T10:20:27;10.90;99.90
43043;DHT22;28667;50.758;6.096;2022-09-27T10:23:05;11.00;99.90
43043;DHT22;28667;50.758;6.096;2022-09-27T10:25:57;11.10;99.90
43043;DHT22;28667;50.758;6.096;2022-09-27T10:28:44;11.20;99.90
43043;DHT22;28667;50.758;6.096;2022-09-27T10:31:18;11.20;99.90
43043;DHT22;28667;50.758;6.096;2022-09-27T10:34:04;11.20;99.90
43043;DHT22;28667;50.758;6.096;2022-09-27T10:36:37;11.20;99.90
43043;DHT22;28667;50.758;6.096;2022-09-27T10:39:05;11.20;99.90
43043;DHT22;28667;50.758;6.096;2022-09-27T10:41:41;11.20;99.90
43043;DHT22;28667;50.758;6.096;2022-09-27T10:46:47;11.30;99.90
43043;DHT22;28667;50.758;6.096;2022-09-27T10:49:37;11.30;99.90
43043;DHT22;28667;50.758;6.096;2022-09-27T10:52:17;11.20;99.90
43043;DHT22;28667;50.758;6.096;2022-09-27T10:57:22;11.20;99.90
43043;DHT22;28667;50.758;6.096;2022-09-27T10:59:57;11.30;99.90
43043;DHT22;28667;50.758;6.096;2022-09-27T11:02:35;11.40;99.90
43043;DHT22;28667;50.758;6.096;2022-09-27T11:07:50;11.30;99.90
43043;DHT22;28667;50.758;6.096;2022-09-27T11:10:30;11.20;99.90
43043;DHT22;28667;50.758;6.096;2022-09-27T11:13:17;11.10;99.90
43043;DHT22;28667;50.758;6.096;2022-09-27T11:18:26;11.00;99.90
43043;DHT22;28667;50.758;6.096;2022-09-27T11:29:05;10.90;99.90
43043;DHT22;28667;50.758;6.096;2022-09-27T11:35:03;11.10;99.90
43043;DHT22;28667;50.758;6.096;2022-09-27T11:48:12;11.50;99.90
43043;DHT22;28667;50.758;6.096;2022-09-27T11:50:52;11.60;99.90
43043;DHT22;28667;50.758;6.096;2022-09-27T11:53:47;11.70;99.90
43043;DHT22;28667;50.758;6.096;2022-09-27T11:56:30;11.70;99.90
43043;DHT22;28667;50.758;6.096;2022-09-27T12:02:17;11.70;99.90
43043;DHT22;28667;50.758;6.096;2022-09-27T12:05:19;11.70;99.90
43043;DHT22;28667;50.758;6.096;2022-09-27T12:08:31;11.60;99.90
43043;DHT22;28667;50.758;6.096;2022-09-27T12:11:26;11.30;99.90
43043;DHT22;28667;50.758;6.096;2022-09-27T12:14:02;11.10;99.90
43043;DHT22;28667;50.758;6.096;2022-09-27T12:16:31;11.00;99.90
43043;DHT22;28667;50.758;6.096;2022-09-27T12:18:58;11.00;99.90
43043;DHT22;28667;50.758;6.096;2022-09-27T12:21:47;11.10;99.90
43043;DHT22;28667;50.758;6.096;2022-09-27T12:24:21;11.20;99.90
43043;DHT22;28667;50.758;6.096;2022-09-27T12:27:15;11.30;99.90
43043;DHT22;28667;50.758;6.096;2022-09-27T12:29:45;11.30;99.90
43043;DHT22;28667;50.758;6.096;2022-09-27T12:32:26;11.20;99.90
43043;DHT22;28667;50.758;6.096;2022-09-27T12:37:45;11.20;99.90
43043;DHT22;28667;50.758;6.096;2022-09-27T12:40:26;11.20;99.90
43043;DHT22;28667;50.758;6.096;2022-09-27T12:51:11;11.00;99.90
43043;DHT22;28667;50.758;6.096;2022-09-27T12:53:55;10.90;99.90
43043;DHT22;28667;50.758;6.096;2022-09-27T13:02:34;10.90;99.90
43043;DHT22;28667;50.758;6.096;2022-09-27T13:13:34;11.50;99.90
43043;DHT22;28667;50.758;6.096;2022-09-27T13:16:04;11.60;99.90
43043;DHT22;28667;50.758;6.096;2022-09-27T13:21:06;11.80;99.90
43043;DHT22;28667;50.758;6.096;2022-09-27T13:24:01;11.80;99.90
43043;DHT22;28667;50.758;6.096;2022-09-27T13:26:44;11.90;99.90
43043;DHT22;28667;50.758;6.096;2022-09-27T13:29:22;12.00;99.90
43043;DHT22;28667;50.758;6.096;2022-09-27T13:34:40;12.10;99.90
43043;DHT22;28667;50.758;6.096;2022-09-27T13:37:33;12.00;99.90
43043;DHT22;28667;50.758;6.096;2022-09-27T13:43:15;11.80;99.90
43043;DHT22;28667;50.758;6.096;2022-09-27T13:48:23;11.70;99.90
43043;DHT22;28667;50.758;6.096;2022-09-27T13:50:58;11.60;99.90
43043;DHT22;28667;50.758;6.096;2022-09-27T13:55:52;11.40;99.90
43043;DHT22;28667;50.758;6.096;2022-09-27T13:58:51;11.20;99.90
43043;DHT22;28667;50.758;6.096;2022-09-27T14:01:50;11.10;99.90
43043;DHT22;28667;50.758;6.096;2022-09-27T14:04:23;11.00;99.90
43043;DHT22;28667;50.758;6.096;2022-09-27T14:06:55;10.80;99.90
43043;DHT22;28667;50.758;6.096;2022-09-27T14:09:38;10.50;99.90
43043;DHT22;28667;50.758;6.096;2022-09-27T14:12:21;10.10;99.90
43043;DHT22;28667;50.758;6.096;2022-09-27T14:14:50;9.70;99.90
43043;DHT22;28667;50.758;6.096;2022-09-27T14:17:17;9.50;99.90
43043;DHT22;28667;50.758;6.096;2022-09-27T14:19:44;9.40;99.90
43043;DHT22;28667;50.758;6.096;2022-09-27T14:22:14;9.30;99.90
43043;DHT22;28667;50.758;6.096;2022-09-27T14:25:17;9.20;99.90
43043;DHT22;28667;50.758;6.096;2022-09-27T14:27:46;9.20;99.90
43043;DHT22;28667;50.758;6.096;2022-09-27T14:30:26;9.20;99.90
43043;DHT22;28667;50.758;6.096;2022-09-27T14:33:29;9.40;99.90
43043;DHT22;28667;50.758;6.096;2022-09-27T14:35:59;9.60;99.90
43043;DHT22;28667;50.758;6.096;2022-09-27T14:38:46;9.70;99.90
43043;DHT22;28667;50.758;6.096;2022-09-27T14:41:22;9.90;99.90
43043;DHT22;28667;50.758;6.096;2022-09-27T14:43:49;10.00;99.90
43043;DHT22;28667;50.758;6.096;2022-09-27T14:46:29;10.10;99.90
43043;DHT22;28667;50.758;6.096;2022-09-27T14:48:56;10.20;99.90
43043;DHT22;28667;50.758;6.096;2022-09-27T14:51:31;10.20;99.90
43043;DHT22;28667;50.758;6.096;2022-09-27T14:53:59;10.30;99.90
43043;DHT22;28667;50.758;6.096;2022-09-27T14:56:32;10.40;99.90
43043;DHT22;28667;50.758;6.096;2022-09-27T14:59:06;10.50;99.90
43043;DHT22;28667;50.758;6.096;2022-09-27T15:01:36;10.50;99.90
43043;DHT22;28667;50.758;6.096;2022-09-27T15:04:06;10.70;99.90
43043;DHT22;28667;50.758;6.096;2022-09-27T15:06:36;10.70;99.90
43043;DHT22;28667;50.758;6.096;2022-09-27T15:09:04;10.70;99.90
43043;DHT22;28667;50.758;6.096;2022-09-27T15:11:30;10.70;99.90
43043;DHT22;28667;50.758;6.096;2022-09-27T15:13:58;10.60;99.90
43043;DHT22;28667;50.758;6.096;2022-09-27T15:16:26;10.50;99.90
43043;DHT22;28667;50.758;6.096;2022-09-27T15:19:13;10.40;99.90
43043;DHT22;28667;50.758;6.096;2022-09-27T15:21:38;10.40;99.90
43043;DHT22;28667;50.758;6.096;2022-09-27T15:24:05;10.40;99.90
43043;DHT22;28667;50.758;6.096;2022-09-27T15:26:51;10.40;99.90
43043;DHT22;28667;50.758;6.096;2022-09-27T15:29:23;10.40;99.90
43043;DHT22;28667;50.758;6.096;2022-09-27T15:32:04;10.40;99.90
43043;DHT22;28667;50.758;6.096;2022-09-27T15:34:32;10.50;99.90
43043;DHT22;28667;50.758;6.096;2022-09-27T15:37:00;10.50;99.90
43043;DHT22;28667;50.758;6.096;2022-09-27T15:39:33;10.50;99.90
43043;DHT22;28667;50.758;6.096;2022-09-27T15:47:01;10.50;99.90
43043;DHT22;28667;50.758;6.096;2022-09-27T15:49:29;10.50;99.90
43043;DHT22;28667;50.758;6.096;2022-09-27T15:51:57;10.60;99.90
43043;DHT22;28667;50.758;6.096;2022-09-27T15:54:26;10.50;99.90
43043;DHT22;28667;50.758;6.096;2022-09-27T15:56:56;10.60;99.90
43043;DHT22;28667;50.758;6.096;2022-09-27T15:59:29;10.70;99.90
43043;DHT22;28667;50.758;6.096;2022-09-27T16:01:57;10.70;99.90
43043;DHT22;28667;50.758;6.096;2022-09-27T16:04:25;10.70;99.90
43043;DHT22;28667;50.758;6.096;2022-09-27T16:06:52;10.80;99.90
43043;DHT22;28667;50.758;6.096;2022-09-27T16:09:20;10.80;99.90
43043;DHT22;28667;50.758;6.096;2022-09-27T16:11:49;10.80;99.90
43043;DHT22;28667;50.758;6.096;2022-09-27T16:14:16;10.80;99.90
43043;DHT22;28667;50.758;6.096;2022-09-27T16:16:45;10.70;99.90
43043;DHT22;28667;50.758;6.096;2022-09-27T16:19:13;10.70;99.90
43043;DHT22;28667;50.758;6.096;2022-09-27T16:21:38;10.60;99.90
43043;DHT22;28667;50.758;6.096;2022-09-27T16:24:09;10.50;99.90
43043;DHT22;28667;50.758;6.096;2022-09-27T16:26:35;10.50;99.90
43043;DHT22;28667;50.758;6.096;2022-09-27T16:29:02;10.40;99.90
43043;DHT22;28667;50.758;6.096;2022-09-27T16:31:28;10.40;99.90
43043;DHT22;28667;50.758;6.096;2022-09-27T16:33:54;10.40;99.90
43043;DHT22;28667;50.758;6.096;2022-09-27T16:36:20;10.30;99.90
43043;DHT22;28667;50.758;6.096;2022-09-27T16:38:50;10.30;99.90
43043;DHT22;28667;50.758;6.096;2022-09-27T16:41:18;10.20;99.90
43043;DHT22;28667;50.758;6.096;2022-09-27T16:43:45;10.20;99.90
43043;DHT22;28667;50.758;6.096;2022-09-27T16:46:12;10.10;99.90
43043;DHT22;28667;50.758;6.096;2022-09-27T16:48:40;10.00;99.90
43043;DHT22;28667;50.758;6.096;2022-09-27T16:51:11;10.00;99.90
43043;DHT22;28667;50.758;6.096;2022-09-27T16:53:56;9.90;99.90
43043;DHT22;28667;50.758;6.096;2022-09-27T16:56:22;9.90;99.90
43043;DHT22;28667;50.758;6.096;2022-09-27T16:58:48;9.80;99.90
43043;DHT22;28667;50.758;6.096;2022-09-27T17:01:15;9.80;99.90
43043;DHT22;28667;50.758;6.096;2022-09-27T17:03:42;9.80;99.90
43043;DHT22;28667;50.758;6.096;2022-09-27T17:06:10;9.70;99.90
43043;DHT22;28667;50.758;6.096;2022-09-27T17:08:36;9.70;99.90
43043;DHT22;28667;50.758;6.096;2022-09-27T17:11:02;9.60;99.90
43043;DHT22;28667;50.758;6.096;2022-09-27T17:13:29;9.60;99.90
43043;DHT22;28667;50.758;6.096;2022-09-27T17:15:55;9.60;99.90
43043;DHT22;28667;50.758;6.096;2022-09-27T17:18:21;9.50;99.90
43043;DHT22;28667;50.758;6.096;2022-09-27T17:20:47;9.50;99.90
43043;DHT22;28667;50.758;6.096;2022-09-27T17:23:13;9.50;99.90
43043;DHT22;28667;50.758;6.096;2022-09-27T17:25:39;9.40;99.90
43043;DHT22;28667;50.758;6.096;2022-09-27T17:28:06;9.40;99.90
43043;DHT22;28667;50.758;6.096;2022-09-27T17:30:33;9.40;99.90
43043;DHT22;28667;50.758;6.096;2022-09-27T17:33:00;9.30;99.90
43043;DHT22;28667;50.758;6.096;2022-09-27T17:35:26;9.30;99.90
43043;DHT22;28667;50.758;6.096;2022-09-27T17:37:52;9.30;99.90
43043;DHT22;28667;50.758;6.096;2022-09-27T17:40:18;9.20;99.90
43043;DHT22;28667;50.758;6.096;2022-09-27T17:42:44;9.20;99.90
43043;DHT22;28667;50.758;6.096;2022-09-27T17:45:10;9.20;99.90
43043;DHT22;28667;50.758;6.096;2022-09-27T17:47:36;9.20;99.90
43043;DHT22;28667;50.758;6.096;2022-09-27T17:50:21;9.10;99.90
43043;DHT22;28667;50.758;6.096;2022-09-27T17:52:51;9.10;99.90
43043;DHT22;28667;50.758;6.096;2022-09-27T17:55:19;9.00;99.90
43043;DHT22;28667;50.758;6.096;2022-09-27T17:57:47;9.00;99.90
43043;DHT22;28667;50.758;6.096;2022-09-27T18:00:14;8.90;99.90
43043;DHT22;28667;50.758;6.096;2022-09-27T18:02:40;8.90;99.90
43043;DHT22;28667;50.758;6.096;2022-09-27T18:05:07;8.90;99.90
43043;DHT22;28667;50.758;6.096;2022-09-27T18:07:34;8.80;99.90
43043;DHT22;28667;50.758;6.096;2022-09-27T18:10:02;8.80;99.90
43043;DHT22;28667;50.758;6.096;2022-09-27T18:12:29;8.80;99.90
43043;DHT22;28667;50.758;6.096;2022-09-27T18:15:00;8.80;99.90
43043;DHT22;28667;50.758;6.096;2022-09-27T18:17:26;8.80;99.90
43043;DHT22;28667;50.758;6.096;2022-09-27T18:19:53;8.80;99.90
43043;DHT22;28667;50.758;6.096;2022-09-27T18:22:22;8.80;99.90
43043;DHT22;28667;50.758;6.096;2022-09-27T18:24:53;8.70;99.90
43043;DHT22;28667;50.758;6.096;2022-09-27T18:27:19;8.70;99.90
43043;DHT22;28667;50.758;6.096;2022-09-27T18:29:45;8.70;99.90
43043;DHT22;28667;50.758;6.096;2022-09-27T18:32:12;8.70;99.90
43043;DHT22;28667;50.758;6.096;2022-09-27T18:34:38;8.70;99.90
43043;DHT22;28667;50.758;6.096;2022-09-27T18:37:06;8.70;99.90